createdAt,value
2023-05-12T00:01:23.265Z,12.47
2023-05-12T00:03:53.493Z,12.40
2023-05-12T00:06:20.973Z,12.37
2023-05-12T00:08:48.015Z,12.13
2023-05-12T00:11:15.175Z,12.26
2023-05-12T00:13:42.302Z,12.27
2023-05-12T00:16:09.925Z,11.97
2023-05-12T00:18:37.042Z,12.24
2023-05-12T00:21:04.654Z,12.09
2023-05-12T00:23:31.722Z,12.15
2023-05-12T00:25:58.764Z,12.18
2023-05-12T00:28:25.871Z,12.20
2023-05-12T00:30:53.007Z,12.20
2023-05-12T00:33:20.022Z,12.21
2023-05-12T00:35:47.120Z,12.11
2023-05-12T00:38:14.224Z,12.18
2023-05-12T00:40:41.939Z,12.21
2023-05-12T00:43:08.949Z,12.15
2023-05-12T00:45:36.644Z,12.18
2023-05-12T00:48:04.708Z,12.14
2023-05-12T00:50:32.173Z,12.16
2023-05-12T00:53:01.912Z,12.17
2023-05-12T00:55:30.406Z,12.11
2023-05-12T00:57:58.222Z,12.08
2023-05-12T01:00:26.684Z,12.06
2023-05-12T01:02:57.605Z,11.97
2023-05-12T01:05:35.800Z,12.01
2023-05-12T01:08:03.282Z,11.95
2023-05-12T01:10:30.337Z,11.98
2023-05-12T01:12:57.641Z,11.88
2023-05-12T01:15:24.901Z,12.03
2023-05-12T01:18:02.084Z,11.95
2023-05-12T01:20:31.856Z,12.00
2023-05-12T01:22:59.306Z,11.97
2023-05-12T01:25:32.422Z,11.79
2023-05-12T01:28:02.846Z,12.07
2023-05-12T01:30:32.428Z,12.10
2023-05-12T01:32:59.903Z,12.15
2023-05-12T01:35:27.039Z,12.12
2023-05-12T01:38:02.686Z,12.03
2023-05-12T01:40:30.673Z,12.15
2023-05-12T01:42:58.515Z,12.03
2023-05-12T01:45:28.752Z,12.04
2023-05-12T01:47:55.765Z,12.12
2023-05-12T01:50:22.928Z,12.11
2023-05-12T01:52:50.407Z,11.84
2023-05-12T01:55:20.111Z,12.04
2023-05-12T01:57:53.095Z,11.98
2023-05-12T02:00:21.747Z,12.10
2023-05-12T02:02:51.038Z,11.94
2023-05-12T02:05:18.519Z,12.05
2023-05-12T02:07:48.927Z,12.09
2023-05-12T02:10:16.170Z,12.02
2023-05-12T02:12:43.375Z,11.94
2023-05-12T02:15:10.650Z,11.88
2023-05-12T02:17:42.067Z,12.07
2023-05-12T02:20:11.982Z,11.96
2023-05-12T02:22:39.051Z,11.72
2023-05-12T02:25:06.656Z,11.72
2023-05-12T02:27:34.141Z,11.79
2023-05-12T02:30:01.459Z,11.71
2023-05-12T02:32:29.688Z,11.78
2023-05-12T02:34:56.745Z,11.62
2023-05-12T02:37:24.292Z,11.76
2023-05-12T02:39:51.403Z,11.38
2023-05-12T02:42:19.203Z,11.69
2023-05-12T02:44:46.236Z,11.70
2023-05-12T02:47:13.418Z,11.72
2023-05-12T02:49:40.430Z,11.61
2023-05-12T02:52:07.706Z,11.73
2023-05-12T02:54:34.799Z,11.58
2023-05-12T02:57:05.388Z,11.44
2023-05-12T02:59:32.825Z,11.42
2023-05-12T03:01:59.921Z,11.57
2023-05-12T03:04:27.294Z,11.53
2023-05-12T03:06:54.403Z,11.61
2023-05-12T03:09:21.595Z,11.42
2023-05-12T03:11:48.596Z,11.38
2023-05-12T03:14:15.689Z,11.24
2023-05-12T03:16:43.078Z,11.51
2023-05-12T03:19:10.392Z,11.57
2023-05-12T03:21:37.560Z,11.39
2023-05-12T03:24:05.054Z,11.34
2023-05-12T03:26:32.068Z,11.42
2023-05-12T03:28:59.146Z,11.57
2023-05-12T03:31:26.811Z,11.61
2023-05-12T03:33:53.984Z,11.47
2023-05-12T03:36:21.399Z,11.52
2023-05-12T03:38:48.538Z,11.54
2023-05-12T03:41:16.994Z,11.47
2023-05-12T03:43:44.156Z,11.58
2023-05-12T03:46:12.756Z,11.62
2023-05-12T03:48:39.849Z,11.46
2023-05-12T03:51:07.678Z,11.54
2023-05-12T03:53:34.768Z,11.56
2023-05-12T03:56:05.426Z,11.43
2023-05-12T03:58:33.137Z,11.35
2023-05-12T04:01:01.555Z,11.24
2023-05-12T04:03:29.502Z,11.59
2023-05-12T04:06:00.629Z,11.55
2023-05-12T04:08:28.330Z,11.63
2023-05-12T04:10:58.017Z,11.54
2023-05-12T04:13:25.843Z,11.27
2023-05-12T04:15:56.749Z,11.59
2023-05-12T04:18:25.013Z,11.64
2023-05-12T04:20:53.150Z,11.67
2023-05-12T04:23:20.737Z,11.58
2023-05-12T04:25:47.780Z,11.60
2023-05-12T04:28:16.083Z,11.62
2023-05-12T04:30:43.337Z,11.67
2023-05-12T04:33:10.575Z,11.52
2023-05-12T04:35:38.332Z,11.55
2023-05-12T04:38:06.537Z,11.80
2023-05-12T04:40:35.026Z,11.77
2023-05-12T04:43:03.228Z,11.86
2023-05-12T04:45:32.661Z,11.88
2023-05-12T04:48:00.040Z,11.84
2023-05-12T04:50:27.192Z,11.85
2023-05-12T04:52:54.178Z,11.82
2023-05-12T04:55:21.798Z,11.84
2023-05-12T04:57:49.736Z,11.65
2023-05-12T05:00:17.036Z,11.67
2023-05-12T05:02:45.920Z,11.56
2023-05-12T05:05:13.050Z,11.69
2023-05-12T05:07:40.466Z,11.58
2023-05-12T05:10:08.653Z,11.89
2023-05-12T05:12:36.212Z,11.72
2023-05-12T05:15:03.979Z,11.98
2023-05-12T05:17:31.193Z,11.91
2023-05-12T05:19:59.582Z,12.05
2023-05-12T05:22:30.079Z,11.68
2023-05-12T05:24:57.331Z,12.15
2023-05-12T05:27:24.318Z,11.84
2023-05-12T05:29:51.701Z,12.13
2023-05-12T05:32:18.813Z,12.17
2023-05-12T05:34:45.840Z,12.28
2023-05-12T05:37:12.916Z,12.28
2023-05-12T05:39:40.209Z,12.31
2023-05-12T05:42:07.345Z,12.13
2023-05-12T05:44:35.344Z,12.40
2023-05-12T05:47:04.218Z,12.37
2023-05-12T05:49:31.401Z,12.41
2023-05-12T05:52:00.659Z,12.48
2023-05-12T05:54:27.956Z,12.26
2023-05-12T05:56:55.117Z,12.28
2023-05-12T05:59:22.123Z,12.39
2023-05-12T06:01:49.198Z,12.42
2023-05-12T06:04:16.301Z,12.54
2023-05-12T06:06:43.371Z,12.33
2023-05-12T06:09:12.310Z,12.33
2023-05-12T06:11:39.568Z,12.47
2023-05-12T06:14:06.610Z,12.60
2023-05-12T06:16:33.684Z,12.61
2023-05-12T06:19:00.870Z,12.54
2023-05-12T06:21:28.106Z,12.83
2023-05-12T06:23:56.302Z,12.46
2023-05-12T06:26:23.306Z,12.77
2023-05-12T06:28:50.349Z,12.75
2023-05-12T06:31:17.438Z,12.65
2023-05-12T06:33:44.560Z,12.73
2023-05-12T06:36:13.006Z,12.93
2023-05-12T06:38:40.056Z,12.99
2023-05-12T06:41:07.158Z,13.10
2023-05-12T06:43:34.196Z,12.55
2023-05-12T06:46:04.016Z,12.92
2023-05-12T06:48:31.094Z,13.07
2023-05-12T06:50:58.095Z,12.80
2023-05-12T06:53:29.927Z,12.68
2023-05-12T06:55:57.082Z,12.95
2023-05-12T06:58:24.282Z,13.18
2023-05-12T07:00:51.377Z,13.29
2023-05-12T07:03:18.536Z,13.07
2023-05-12T07:05:46.267Z,13.25
2023-05-12T07:08:13.498Z,13.33
2023-05-12T07:10:40.573Z,13.34
2023-05-12T07:13:07.832Z,13.05
2023-05-12T07:15:34.991Z,13.49
2023-05-12T07:18:02.262Z,13.39
2023-05-12T07:20:29.288Z,13.77
2023-05-12T07:22:56.460Z,13.96
2023-05-12T07:25:23.951Z,13.49
2023-05-12T07:27:51.109Z,13.90
2023-05-12T07:30:18.238Z,13.80
2023-05-12T07:32:46.188Z,13.96
2023-05-12T07:35:13.608Z,13.70
2023-05-12T07:37:41.420Z,14.04
2023-05-12T07:40:08.757Z,14.65
2023-05-12T07:42:35.862Z,14.41
2023-05-12T07:45:03.285Z,14.34
2023-05-12T07:47:30.479Z,14.36
2023-05-12T07:49:57.953Z,14.54
2023-05-12T07:52:25.057Z,14.89
2023-05-12T07:54:52.212Z,15.02
2023-05-12T07:57:19.222Z,14.88
2023-05-12T07:59:46.286Z,14.92
2023-05-12T08:02:13.302Z,15.05
2023-05-12T08:04:41.994Z,15.42
2023-05-12T08:07:10.263Z,15.65
2023-05-12T08:09:37.314Z,15.47
2023-05-12T08:12:04.669Z,15.47
2023-05-12T08:14:31.668Z,15.52
2023-05-12T08:16:58.720Z,15.50
2023-05-12T08:19:25.872Z,15.63
2023-05-12T08:21:53.580Z,15.45
2023-05-12T08:24:21.838Z,15.74
2023-05-12T08:26:48.874Z,15.59
2023-05-12T08:29:16.674Z,15.86
2023-05-12T08:31:43.776Z,16.04
2023-05-12T08:34:11.332Z,15.90
2023-05-12T08:36:39.183Z,15.97
2023-05-12T08:39:06.654Z,16.19
2023-05-12T08:41:56.132Z,16.22
2023-05-12T08:44:24.662Z,16.05
2023-05-12T08:46:54.481Z,16.09
2023-05-12T08:49:24.613Z,16.00
2023-05-12T08:51:58.346Z,16.45
2023-05-12T08:54:27.762Z,16.44
2023-05-12T08:59:26.240Z,16.31
2023-05-12T09:01:55.098Z,16.51
2023-05-12T09:04:22.202Z,16.77
2023-05-12T09:06:49.816Z,16.94
2023-05-12T09:09:17.514Z,17.12
2023-05-12T09:11:45.428Z,16.89
2023-05-12T09:14:18.760Z,17.15
2023-05-12T09:16:49.120Z,16.73
2023-05-12T09:19:21.307Z,16.99
2023-05-12T09:21:48.697Z,17.05
2023-05-12T09:24:15.753Z,17.23
2023-05-12T09:26:48.180Z,17.15
2023-05-12T09:29:27.696Z,16.97
2023-05-12T09:31:58.358Z,16.96
2023-05-12T09:34:30.635Z,17.10
2023-05-12T09:36:59.503Z,17.19
2023-05-12T09:39:26.902Z,17.38
2023-05-12T09:41:54.055Z,17.59
2023-05-12T09:44:22.945Z,17.44
2023-05-12T09:46:51.330Z,17.41
2023-05-12T09:49:25.573Z,17.78
2023-05-12T09:51:54.031Z,17.94
2023-05-12T09:54:31.351Z,18.16
2023-05-12T09:57:01.427Z,18.48
2023-05-12T09:59:31.432Z,18.79
2023-05-12T10:02:04.570Z,18.54
2023-05-12T10:04:41.503Z,18.60
2023-05-12T10:07:11.914Z,18.82
2023-05-12T10:09:42.221Z,18.71
2023-05-12T10:12:10.296Z,18.60
2023-05-12T10:14:38.103Z,19.07
2023-05-12T10:17:06.967Z,18.96
2023-05-12T10:19:35.414Z,19.21
2023-05-12T10:22:03.773Z,18.83
2023-05-12T10:24:31.027Z,18.79
2023-05-12T10:26:59.786Z,18.97
2023-05-12T10:29:32.666Z,18.54
2023-05-12T10:32:03.097Z,18.45
2023-05-12T10:34:42.256Z,18.69
2023-05-12T10:37:11.278Z,19.17
2023-05-12T10:39:49.058Z,19.22
2023-05-12T10:42:22.931Z,19.59
2023-05-12T10:44:54.358Z,19.73
2023-05-12T10:47:42.472Z,20.08
2023-05-12T10:50:13.603Z,19.89
2023-05-12T10:52:54.295Z,20.01
2023-05-12T10:55:31.682Z,20.32
2023-05-12T10:58:25.309Z,20.35
2023-05-12T11:00:55.063Z,19.89
2023-05-12T11:03:26.173Z,20.05
2023-05-12T11:06:03.193Z,20.10
2023-05-12T11:08:35.645Z,19.50
2023-05-12T11:11:03.375Z,19.52
2023-05-12T11:13:30.573Z,20.05
2023-05-12T11:15:58.171Z,20.08
2023-05-12T11:18:25.427Z,20.09
2023-05-12T11:20:52.545Z,20.11
2023-05-12T11:23:28.820Z,20.46
2023-05-12T11:25:57.058Z,20.22
2023-05-12T11:28:24.214Z,20.36
2023-05-12T11:30:55.550Z,20.40
2023-05-12T11:33:23.350Z,20.57
2023-05-12T11:35:50.973Z,20.56
2023-05-12T11:38:19.120Z,20.75
2023-05-12T11:40:47.057Z,20.25
2023-05-12T11:43:15.186Z,20.18
2023-05-12T11:45:42.303Z,20.52
2023-05-12T11:48:14.022Z,20.94
2023-05-12T11:50:48.397Z,21.14
2023-05-12T11:53:18.728Z,20.63
2023-05-12T11:55:56.245Z,20.82
2023-05-12T11:58:30.350Z,21.30
2023-05-12T12:01:08.268Z,21.44
2023-05-12T12:03:46.889Z,21.81
2023-05-12T12:06:14.605Z,21.51
2023-05-12T12:08:56.112Z,21.49
2023-05-12T12:11:26.811Z,21.25
2023-05-12T12:13:57.942Z,21.10
2023-05-12T12:16:31.385Z,20.75
2023-05-12T12:18:58.602Z,20.98
2023-05-12T12:21:25.728Z,20.99
2023-05-12T12:23:52.800Z,21.32
2023-05-12T12:26:21.483Z,21.03
2023-05-12T12:28:49.001Z,21.30
2023-05-12T12:31:16.537Z,20.83
2023-05-12T12:33:43.702Z,20.99
2023-05-12T12:36:10.761Z,20.86
2023-05-12T12:38:38.063Z,20.92
2023-05-12T12:41:06.932Z,20.59
2023-05-12T12:43:33.952Z,20.93
2023-05-12T12:46:01.031Z,21.31
2023-05-12T12:48:28.877Z,21.33
2023-05-12T12:50:56.170Z,20.73
2023-05-12T12:53:23.657Z,20.46
2023-05-12T12:55:51.070Z,20.56
2023-05-12T12:58:18.113Z,20.42
2023-05-12T13:00:45.411Z,20.33
2023-05-12T13:03:12.651Z,19.99
2023-05-12T13:05:39.816Z,19.75
2023-05-12T13:08:07.164Z,20.08
2023-05-12T13:10:34.797Z,19.96
2023-05-12T13:13:02.027Z,20.16
2023-05-12T13:15:29.400Z,19.89
2023-05-12T13:17:56.602Z,20.11
2023-05-12T13:20:23.889Z,19.86
2023-05-12T13:22:50.901Z,20.07
2023-05-12T13:25:18.073Z,20.17
2023-05-12T13:27:45.161Z,19.74
2023-05-12T13:30:13.888Z,20.02
2023-05-12T13:32:41.566Z,19.73
2023-05-12T13:35:09.236Z,20.16
2023-05-12T13:37:37.368Z,20.12
2023-05-12T13:40:04.789Z,19.84
2023-05-12T13:42:31.826Z,19.57
2023-05-12T13:44:58.840Z,19.49
2023-05-12T13:47:25.887Z,19.14
2023-05-12T13:49:53.050Z,18.85
2023-05-12T13:52:20.037Z,18.82
2023-05-12T13:54:47.129Z,18.91
2023-05-12T13:57:14.174Z,19.30
2023-05-12T13:59:41.236Z,19.39
2023-05-12T14:02:11.382Z,19.42
2023-05-12T14:04:38.573Z,19.55
2023-05-12T14:07:08.324Z,19.23
2023-05-12T14:09:35.854Z,19.39
2023-05-12T14:12:04.255Z,19.25
2023-05-12T14:14:31.515Z,19.33
2023-05-12T14:16:58.507Z,19.48
2023-05-12T14:19:25.658Z,19.67
2023-05-12T14:21:52.860Z,19.87
2023-05-12T14:24:22.800Z,20.04
2023-05-12T14:26:49.854Z,20.23
2023-05-12T14:29:16.958Z,20.28
2023-05-12T14:31:44.091Z,20.24
2023-05-12T14:34:12.261Z,20.33
2023-05-12T14:36:39.426Z,20.37
2023-05-12T14:39:08.719Z,19.46
2023-05-12T14:41:35.899Z,19.47
2023-05-12T14:44:02.906Z,19.61
2023-05-12T14:46:30.456Z,19.83
2023-05-12T14:48:57.791Z,20.39
2023-05-12T14:51:25.104Z,20.97
2023-05-12T14:53:52.136Z,20.93
2023-05-12T14:56:19.131Z,21.47
2023-05-12T14:58:46.284Z,21.27
2023-05-12T15:01:13.365Z,20.76
2023-05-12T15:03:40.657Z,20.63
2023-05-12T15:06:08.288Z,19.93
2023-05-12T15:08:35.680Z,19.77
2023-05-12T15:11:02.747Z,19.56
2023-05-12T15:13:29.893Z,19.61
2023-05-12T15:15:57.168Z,19.34
2023-05-12T15:18:24.484Z,19.15
2023-05-12T15:20:51.921Z,19.39
2023-05-12T15:23:19.026Z,19.56
2023-05-12T15:25:46.008Z,19.60
2023-05-12T15:28:13.185Z,19.40
2023-05-12T15:30:40.181Z,19.42
2023-05-12T15:33:07.279Z,19.70
2023-05-12T15:35:34.560Z,19.70
2023-05-12T15:38:01.576Z,19.89
2023-05-12T15:40:30.658Z,20.02
2023-05-12T15:42:57.947Z,19.84
2023-05-12T15:45:24.995Z,19.85
2023-05-12T15:47:52.182Z,20.15
2023-05-12T15:50:22.359Z,20.53
2023-05-12T15:52:49.601Z,21.08
2023-05-12T15:55:16.829Z,23.31
2023-05-12T15:57:43.870Z,24.70
2023-05-12T16:00:12.059Z,24.54
2023-05-12T16:02:41.924Z,24.37
2023-05-12T16:05:09.674Z,22.56
2023-05-12T16:07:36.773Z,21.70
2023-05-12T16:10:04.396Z,20.82
2023-05-12T16:12:31.426Z,19.80
2023-05-12T16:14:58.793Z,19.62
2023-05-12T16:17:25.989Z,19.06
2023-05-12T16:19:53.630Z,19.01
2023-05-12T16:22:20.693Z,18.77
2023-05-12T16:24:48.042Z,18.70
2023-05-12T16:27:15.299Z,18.79
2023-05-12T16:29:45.659Z,18.85
2023-05-12T16:32:13.148Z,18.98
2023-05-12T16:34:40.436Z,18.91
2023-05-12T16:37:07.596Z,19.36
2023-05-12T16:39:35.826Z,20.44
2023-05-12T16:42:03.229Z,20.90
2023-05-12T16:44:30.319Z,20.57
2023-05-12T16:46:57.422Z,20.47
2023-05-12T16:49:24.578Z,20.15
2023-05-12T16:51:51.561Z,20.11
2023-05-12T16:54:18.762Z,20.38
2023-05-12T16:56:45.881Z,19.92
2023-05-12T16:59:12.916Z,19.85
2023-05-12T17:01:39.988Z,19.56
2023-05-12T17:04:07.921Z,19.20
2023-05-12T17:06:35.098Z,20.16
2023-05-12T17:09:02.202Z,19.80
2023-05-12T17:11:29.232Z,19.36
2023-05-12T17:13:56.303Z,19.18
2023-05-12T17:16:23.439Z,18.75
2023-05-12T17:21:20.420Z,18.56
2023-05-12T17:23:47.572Z,18.20
2023-05-12T17:26:14.600Z,18.12
2023-05-12T17:28:42.273Z,18.31
2023-05-12T17:31:10.469Z,18.12
2023-05-12T17:33:37.685Z,17.96
2023-05-12T17:36:12.229Z,17.83
2023-05-12T17:38:40.932Z,18.10
2023-05-12T17:41:08.373Z,17.70
2023-05-12T17:43:35.611Z,17.52
2023-05-12T17:46:04.615Z,17.56
2023-05-12T17:48:33.175Z,17.56
2023-05-12T17:51:02.147Z,17.44
2023-05-12T17:53:29.609Z,17.34
2023-05-12T17:55:57.201Z,17.43
2023-05-12T17:58:24.267Z,17.16
2023-05-12T18:00:51.658Z,17.37
2023-05-12T18:03:23.412Z,17.37
2023-05-12T18:05:52.119Z,17.37
2023-05-12T18:08:19.239Z,17.23
2023-05-12T18:10:46.703Z,17.25
2023-05-12T18:13:15.320Z,17.03
2023-05-12T18:15:42.831Z,17.22
2023-05-12T18:18:10.647Z,17.08
2023-05-12T18:20:38.089Z,17.02
2023-05-12T18:23:05.303Z,17.11
2023-05-12T18:25:32.520Z,16.94
2023-05-12T18:27:59.656Z,16.87
2023-05-12T18:30:26.782Z,16.74
2023-05-12T18:32:53.893Z,16.81
2023-05-12T18:35:21.785Z,16.67
2023-05-12T18:37:49.461Z,16.72
2023-05-12T18:40:16.871Z,16.67
2023-05-12T18:42:44.042Z,16.62
2023-05-12T18:45:11.837Z,16.72
2023-05-12T18:47:39.273Z,16.59
2023-05-12T18:50:07.399Z,16.63
2023-05-12T18:52:34.490Z,16.59
2023-05-12T18:55:01.569Z,16.54
2023-05-12T18:57:28.562Z,16.35
2023-05-12T18:59:55.778Z,16.42
2023-05-12T19:02:23.011Z,16.19
2023-05-12T19:04:50.312Z,16.26
2023-05-12T19:07:17.587Z,16.14
2023-05-12T19:09:45.120Z,16.18
2023-05-12T19:12:12.235Z,16.15
2023-05-12T19:14:40.312Z,15.89
2023-05-12T19:17:07.666Z,16.18
2023-05-12T19:19:35.168Z,16.13
2023-05-12T19:22:04.006Z,16.19
2023-05-12T19:24:31.357Z,15.94
2023-05-12T19:26:58.654Z,15.82
2023-05-12T19:29:26.068Z,15.82
2023-05-12T19:31:53.603Z,15.97
2023-05-12T19:34:21.443Z,15.78
2023-05-12T19:36:48.579Z,15.71
2023-05-12T19:39:15.676Z,15.40
2023-05-12T19:41:42.838Z,15.34
2023-05-12T19:44:09.861Z,15.31
2023-05-12T19:46:37.000Z,15.36
2023-05-12T19:49:05.709Z,15.06
2023-05-12T19:51:32.910Z,15.10
2023-05-12T19:54:01.810Z,15.18
2023-05-12T19:56:29.530Z,15.15
2023-05-12T19:58:56.549Z,15.22
2023-05-12T20:01:23.894Z,15.15
2023-05-12T20:03:52.910Z,15.12
2023-05-12T20:06:20.346Z,15.10
2023-05-12T20:08:47.385Z,15.01
2023-05-12T20:11:14.363Z,15.04
2023-05-12T20:13:41.385Z,14.94
2023-05-12T20:16:08.992Z,15.01
2023-05-12T20:18:36.021Z,14.94
2023-05-12T20:21:03.383Z,14.91
2023-05-12T20:23:30.411Z,14.68
2023-05-12T20:25:57.702Z,14.65
2023-05-12T20:28:24.986Z,14.31
2023-05-12T20:30:52.160Z,14.48
2023-05-12T20:33:19.399Z,14.33
2023-05-12T20:35:46.581Z,14.09
2023-05-12T20:38:14.198Z,14.21
2023-05-12T20:40:41.252Z,14.06
2023-05-12T20:43:08.360Z,13.95
2023-05-12T20:45:36.411Z,13.81
2023-05-12T20:48:04.343Z,13.66
2023-05-12T20:50:31.528Z,13.75
2023-05-12T20:52:58.961Z,13.74
2023-05-12T20:55:26.429Z,13.70
2023-05-12T20:57:53.482Z,13.61
2023-05-12T21:00:21.010Z,13.53
2023-05-12T21:02:51.868Z,13.46
2023-05-12T21:05:19.506Z,13.34
2023-05-12T21:07:46.671Z,13.03
2023-05-12T21:10:13.716Z,13.05
2023-05-12T21:12:40.765Z,13.31
2023-05-12T21:15:10.656Z,13.32
2023-05-12T21:17:39.246Z,13.26
2023-05-12T21:20:11.414Z,13.15
2023-05-12T21:22:40.489Z,13.28
2023-05-12T21:25:07.931Z,13.07
2023-05-12T21:27:40.249Z,12.95
2023-05-12T21:30:10.768Z,13.06
2023-05-12T21:32:37.892Z,12.95
2023-05-12T21:35:06.154Z,12.92
2023-05-12T21:37:33.293Z,12.76
2023-05-12T21:40:00.471Z,12.83
2023-05-12T21:42:27.578Z,12.75
2023-05-12T21:44:54.672Z,12.54
2023-05-12T21:47:21.891Z,12.46
2023-05-12T21:49:55.982Z,12.43
2023-05-12T21:52:23.214Z,12.49
2023-05-12T21:54:50.300Z,12.47
2023-05-12T21:57:17.400Z,12.17
2023-05-12T21:59:44.836Z,12.13
2023-05-12T22:02:11.911Z,12.29
2023-05-12T22:04:38.949Z,12.30
2023-05-12T22:07:06.030Z,12.29
2023-05-12T22:09:33.096Z,12.28
2023-05-12T22:12:00.186Z,12.26
2023-05-12T22:14:27.243Z,12.21
2023-05-12T22:16:54.374Z,12.21
2023-05-12T22:19:21.781Z,12.14
2023-05-12T22:21:48.855Z,12.17
2023-05-12T22:24:16.402Z,12.30
2023-05-12T22:26:43.427Z,12.30
2023-05-12T22:29:10.423Z,12.19
2023-05-12T22:31:37.530Z,12.29
2023-05-12T22:34:04.739Z,12.17
2023-05-12T22:36:31.752Z,11.97
2023-05-12T22:38:58.829Z,12.10
2023-05-12T22:41:26.028Z,11.94
2023-05-12T22:43:53.074Z,12.19
2023-05-12T22:46:20.256Z,12.02
2023-05-12T22:48:47.367Z,12.11
2023-05-12T22:51:14.352Z,12.07
2023-05-12T22:53:41.405Z,12.07
2023-05-12T22:56:08.520Z,12.14
2023-05-12T22:58:35.649Z,12.16
2023-05-12T23:01:02.751Z,11.95
2023-05-12T23:03:30.006Z,12.02
2023-05-12T23:05:57.067Z,12.02
2023-05-12T23:08:24.177Z,12.11
2023-05-12T23:10:51.182Z,12.05
2023-05-12T23:13:18.188Z,11.97
2023-05-12T23:15:45.236Z,11.84
2023-05-12T23:18:12.289Z,11.98
2023-05-12T23:20:39.353Z,11.96
2023-05-12T23:23:06.950Z,11.86
2023-05-12T23:25:35.117Z,11.92
2023-05-12T23:28:02.269Z,11.78
2023-05-12T23:30:31.901Z,11.93
2023-05-12T23:32:59.111Z,11.76
2023-05-12T23:35:26.470Z,11.79
2023-05-12T23:37:53.911Z,11.77
2023-05-12T23:40:21.221Z,11.70
2023-05-12T23:42:48.369Z,11.59
2023-05-12T23:45:15.867Z,11.53
2023-05-12T23:47:43.316Z,11.58
2023-05-12T23:50:10.596Z,11.55
2023-05-12T23:52:37.638Z,11.45
2023-05-12T23:55:05.207Z,11.45
2023-05-12T23:57:32.237Z,11.43
2023-05-12T23:59:59.245Z,11.47
